sensor_id;sensor_type;location;lat;lon;timestamp;P1;durP1;ratioP1;P2;durP2;ratioP2
20230;SDS011;10274;49.022;9.338;2022-07-25T00:00:03;8.30;;;7.60;;
20230;SDS011;10274;49.022;9.338;2022-07-25T00:02:31;8.43;;;7.63;;
20230;SDS011;10274;49.022;9.338;2022-07-25T00:04:58;8.47;;;7.70;;
20230;SDS011;10274;49.022;9.338;2022-07-25T00:07:25;9.00;;;8.20;;
20230;SDS011;10274;49.022;9.338;2022-07-25T00:09:51;8.97;;;8.07;;
20230;SDS011;10274;49.022;9.338;2022-07-25T00:12:20;9.30;;;8.40;;
20230;SDS011;10274;49.022;9.338;2022-07-25T00:14:46;8.60;;;7.87;;
20230;SDS011;10274;49.022;9.338;2022-07-25T00:17:13;8.63;;;7.93;;
20230;SDS011;10274;49.022;9.338;2022-07-25T00:19:40;8.00;;;7.40;;
20230;SDS011;10274;49.022;9.338;2022-07-25T00:22:07;8.37;;;7.53;;
20230;SDS011;10274;49.022;9.338;2022-07-25T00:24:33;8.40;;;7.70;;
20230;SDS011;10274;49.022;9.338;2022-07-25T00:27:00;8.40;;;7.60;;
20230;SDS011;10274;49.022;9.338;2022-07-25T00:29:29;9.17;;;8.37;;
20230;SDS011;10274;49.022;9.338;2022-07-25T00:31:55;9.20;;;8.30;;
20230;SDS011;10274;49.022;9.338;2022-07-25T00:34:22;9.03;;;8.17;;
20230;SDS011;10274;49.022;9.338;2022-07-25T00:36:49;9.10;;;8.40;;
20230;SDS011;10274;49.022;9.338;2022-07-25T00:39:16;8.77;;;7.73;;
20230;SDS011;10274;49.022;9.338;2022-07-25T00:41:42;9.50;;;8.43;;
20230;SDS011;10274;49.022;9.338;2022-07-25T00:44:09;9.00;;;8.10;;
20230;SDS011;10274;49.022;9.338;2022-07-25T00:46:47;8.43;;;7.73;;
20230;SDS011;10274;49.022;9.338;2022-07-25T00:49:14;9.07;;;8.07;;
20230;SDS011;10274;49.022;9.338;2022-07-25T00:51:41;8.63;;;7.87;;
20230;SDS011;10274;49.022;9.338;2022-07-25T00:54:08;9.30;;;8.40;;
20230;SDS011;10274;49.022;9.338;2022-07-25T00:56:35;8.83;;;8.03;;
20230;SDS011;10274;49.022;9.338;2022-07-25T00:59:02;9.20;;;8.30;;
20230;SDS011;10274;49.022;9.338;2022-07-25T01:01:29;9.53;;;8.20;;
20230;SDS011;10274;49.022;9.338;2022-07-25T01:03:57;9.20;;;8.40;;
20230;SDS011;10274;49.022;9.338;2022-07-25T01:06:24;8.83;;;8.13;;
20230;SDS011;10274;49.022;9.338;2022-07-25T01:08:52;8.97;;;8.10;;
20230;SDS011;10274;49.022;9.338;2022-07-25T01:11:20;9.40;;;8.50;;
20230;SDS011;10274;49.022;9.338;2022-07-25T01:13:47;9.27;;;8.43;;
20230;SDS011;10274;49.022;9.338;2022-07-25T01:16:14;9.60;;;8.70;;
20230;SDS011;10274;49.022;9.338;2022-07-25T01:18:41;9.47;;;8.57;;
20230;SDS011;10274;49.022;9.338;2022-07-25T01:21:09;8.77;;;7.97;;
20230;SDS011;10274;49.022;9.338;2022-07-25T01:23:36;8.83;;;8.03;;
20230;SDS011;10274;49.022;9.338;2022-07-25T01:26:03;9.57;;;8.63;;
20230;SDS011;10274;49.022;9.338;2022-07-25T01:28:29;9.77;;;8.87;;
20230;SDS011;10274;49.022;9.338;2022-07-25T01:30:56;9.30;;;8.57;;
20230;SDS011;10274;49.022;9.338;2022-07-25T01:33:23;8.80;;;8.03;;
20230;SDS011;10274;49.022;9.338;2022-07-25T01:35:50;9.20;;;8.40;;
20230;SDS011;10274;49.022;9.338;2022-07-25T01:38:18;8.60;;;7.80;;
20230;SDS011;10274;49.022;9.338;2022-07-25T01:40:45;9.30;;;8.50;;
20230;SDS011;10274;49.022;9.338;2022-07-25T01:43:12;9.43;;;8.47;;
20230;SDS011;10274;49.022;9.338;2022-07-25T01:45:39;9.80;;;8.90;;
20230;SDS011;10274;49.022;9.338;2022-07-25T01:48:06;9.43;;;8.57;;
20230;SDS011;10274;49.022;9.338;2022-07-25T01:50:32;9.03;;;8.33;;
20230;SDS011;10274;49.022;9.338;2022-07-25T01:52:59;11.77;;;10.10;;
20230;SDS011;10274;49.022;9.338;2022-07-25T01:55:27;9.07;;;8.37;;
20230;SDS011;10274;49.022;9.338;2022-07-25T01:57:54;8.70;;;8.00;;
20230;SDS011;10274;49.022;9.338;2022-07-25T02:00:21;9.77;;;8.87;;
20230;SDS011;10274;49.022;9.338;2022-07-25T02:02:48;8.80;;;8.10;;
20230;SDS011;10274;49.022;9.338;2022-07-25T02:05:35;9.73;;;8.83;;
20230;SDS011;10274;49.022;9.338;2022-07-25T02:08:02;10.37;;;9.30;;
20230;SDS011;10274;49.022;9.338;2022-07-25T02:10:30;9.47;;;8.30;;
20230;SDS011;10274;49.022;9.338;2022-07-25T02:12:57;9.03;;;8.23;;
20230;SDS011;10274;49.022;9.338;2022-07-25T02:15:25;10.70;;;8.20;;
20230;SDS011;10274;49.022;9.338;2022-07-25T02:17:51;9.03;;;8.23;;
20230;SDS011;10274;49.022;9.338;2022-07-25T02:20:18;8.90;;;8.17;;
20230;SDS011;10274;49.022;9.338;2022-07-25T02:22:45;9.30;;;8.50;;
20230;SDS011;10274;49.022;9.338;2022-07-25T02:25:12;9.90;;;8.67;;
20230;SDS011;10274;49.022;9.338;2022-07-25T02:27:40;9.10;;;8.20;;
20230;SDS011;10274;49.022;9.338;2022-07-25T02:30:07;9.20;;;8.37;;
20230;SDS011;10274;49.022;9.338;2022-07-25T02:32:34;9.83;;;9.00;;
20230;SDS011;10274;49.022;9.338;2022-07-25T02:35:01;9.00;;;8.30;;
20230;SDS011;10274;49.022;9.338;2022-07-25T02:37:27;9.83;;;8.83;;
20230;SDS011;10274;49.022;9.338;2022-07-25T02:39:54;8.67;;;7.97;;
20230;SDS011;10274;49.022;9.338;2022-07-25T02:42:21;9.33;;;8.53;;
20230;SDS011;10274;49.022;9.338;2022-07-25T02:44:49;9.47;;;8.67;;
20230;SDS011;10274;49.022;9.338;2022-07-25T02:47:16;9.97;;;8.97;;
20230;SDS011;10274;49.022;9.338;2022-07-25T02:49:43;9.30;;;8.53;;
20230;SDS011;10274;49.022;9.338;2022-07-25T02:52:09;9.73;;;8.73;;
20230;SDS011;10274;49.022;9.338;2022-07-25T02:54:36;8.73;;;7.83;;
20230;SDS011;10274;49.022;9.338;2022-07-25T02:57:03;9.83;;;8.87;;
20230;SDS011;10274;49.022;9.338;2022-07-25T02:59:29;9.33;;;8.53;;
20230;SDS011;10274;49.022;9.338;2022-07-25T03:01:58;9.73;;;8.83;;
20230;SDS011;10274;49.022;9.338;2022-07-25T03:04:24;9.23;;;8.40;;
20230;SDS011;10274;49.022;9.338;2022-07-25T03:06:51;9.00;;;8.10;;
20230;SDS011;10274;49.022;9.338;2022-07-25T03:09:18;9.50;;;8.70;;
20230;SDS011;10274;49.022;9.338;2022-07-25T03:11:45;9.57;;;8.67;;
20230;SDS011;10274;49.022;9.338;2022-07-25T03:14:11;9.93;;;9.00;;
20230;SDS011;10274;49.022;9.338;2022-07-25T03:16:38;9.13;;;8.40;;
20230;SDS011;10274;49.022;9.338;2022-07-25T03:19:07;9.83;;;8.90;;
20230;SDS011;10274;49.022;9.338;2022-07-25T03:21:35;8.87;;;8.17;;
20230;SDS011;10274;49.022;9.338;2022-07-25T03:24:02;9.27;;;8.47;;
20230;SDS011;10274;49.022;9.338;2022-07-25T03:26:29;9.83;;;8.83;;
20230;SDS011;10274;49.022;9.338;2022-07-25T03:28:56;9.97;;;9.07;;
20230;SDS011;10274;49.022;9.338;2022-07-25T03:31:23;9.50;;;8.60;;
20230;SDS011;10274;49.022;9.338;2022-07-25T03:33:49;9.33;;;8.40;;
20230;SDS011;10274;49.022;9.338;2022-07-25T03:36:17;9.83;;;8.50;;
20230;SDS011;10274;49.022;9.338;2022-07-25T03:38:44;9.40;;;8.47;;
20230;SDS011;10274;49.022;9.338;2022-07-25T03:41:11;9.30;;;8.50;;
20230;SDS011;10274;49.022;9.338;2022-07-25T03:43:38;9.07;;;8.30;;
20230;SDS011;10274;49.022;9.338;2022-07-25T03:46:05;9.07;;;8.37;;
20230;SDS011;10274;49.022;9.338;2022-07-25T03:48:31;10.30;;;9.23;;
20230;SDS011;10274;49.022;9.338;2022-07-25T03:50:58;9.93;;;8.27;;
20230;SDS011;10274;49.022;9.338;2022-07-25T03:53:26;9.13;;;8.33;;
20230;SDS011;10274;49.022;9.338;2022-07-25T03:55:53;9.30;;;8.40;;
20230;SDS011;10274;49.022;9.338;2022-07-25T03:58:20;9.63;;;8.83;;
20230;SDS011;10274;49.022;9.338;2022-07-25T04:00:46;10.50;;;9.57;;
20230;SDS011;10274;49.022;9.338;2022-07-25T04:03:13;9.80;;;8.80;;
20230;SDS011;10274;49.022;9.338;2022-07-25T04:05:40;9.53;;;8.73;;
20230;SDS011;10274;49.022;9.338;2022-07-25T04:08:07;9.60;;;8.70;;
20230;SDS011;10274;49.022;9.338;2022-07-25T04:10:35;11.77;;;8.77;;
20230;SDS011;10274;49.022;9.338;2022-07-25T04:13:02;9.47;;;8.50;;
20230;SDS011;10274;49.022;9.338;2022-07-25T04:15:28;9.40;;;8.57;;
20230;SDS011;10274;49.022;9.338;2022-07-25T04:17:55;9.50;;;8.70;;
20230;SDS011;10274;49.022;9.338;2022-07-25T04:20:22;9.80;;;8.70;;
20230;SDS011;10274;49.022;9.338;2022-07-25T04:22:48;10.30;;;8.70;;
20230;SDS011;10274;49.022;9.338;2022-07-25T04:25:15;9.97;;;9.07;;
20230;SDS011;10274;49.022;9.338;2022-07-25T04:27:43;9.67;;;8.30;;
20230;SDS011;10274;49.022;9.338;2022-07-25T04:30:10;10.67;;;9.13;;
20230;SDS011;10274;49.022;9.338;2022-07-25T04:32:38;9.73;;;8.90;;
20230;SDS011;10274;49.022;9.338;2022-07-25T04:35:05;9.60;;;8.70;;
20230;SDS011;10274;49.022;9.338;2022-07-25T04:37:32;11.23;;;9.47;;
20230;SDS011;10274;49.022;9.338;2022-07-25T04:40:01;10.07;;;8.93;;
20230;SDS011;10274;49.022;9.338;2022-07-25T04:42:28;9.20;;;8.50;;
20230;SDS011;10274;49.022;9.338;2022-07-25T04:44:56;8.83;;;8.03;;
20230;SDS011;10274;49.022;9.338;2022-07-25T04:47:23;9.00;;;8.30;;
20230;SDS011;10274;49.022;9.338;2022-07-25T04:49:49;10.57;;;8.47;;
20230;SDS011;10274;49.022;9.338;2022-07-25T04:52:16;9.60;;;8.70;;
20230;SDS011;10274;49.022;9.338;2022-07-25T04:54:43;9.87;;;9.00;;
20230;SDS011;10274;49.022;9.338;2022-07-25T04:57:10;9.60;;;8.60;;
20230;SDS011;10274;49.022;9.338;2022-07-25T04:59:36;10.10;;;9.10;;
20230;SDS011;10274;49.022;9.338;2022-07-25T05:02:04;9.40;;;8.40;;
20230;SDS011;10274;49.022;9.338;2022-07-25T05:04:31;10.20;;;9.20;;
20230;SDS011;10274;49.022;9.338;2022-07-25T05:06:58;10.73;;;9.60;;
20230;SDS011;10274;49.022;9.338;2022-07-25T05:09:25;9.70;;;8.90;;
20230;SDS011;10274;49.022;9.338;2022-07-25T05:11:52;10.43;;;9.40;;
20230;SDS011;10274;49.022;9.338;2022-07-25T05:14:19;10.37;;;9.43;;
20230;SDS011;10274;49.022;9.338;2022-07-25T05:16:46;9.23;;;8.43;;
20230;SDS011;10274;49.022;9.338;2022-07-25T05:19:14;9.90;;;9.10;;
20230;SDS011;10274;49.022;9.338;2022-07-25T05:21:41;10.10;;;9.20;;
20230;SDS011;10274;49.022;9.338;2022-07-25T05:24:07;10.30;;;9.30;;
20230;SDS011;10274;49.022;9.338;2022-07-25T05:26:34;10.20;;;9.13;;
20230;SDS011;10274;49.022;9.338;2022-07-25T05:29:01;9.40;;;8.60;;
20230;SDS011;10274;49.022;9.338;2022-07-25T05:31:27;10.27;;;9.27;;
20230;SDS011;10274;49.022;9.338;2022-07-25T05:33:54;10.47;;;9.57;;
20230;SDS011;10274;49.022;9.338;2022-07-25T05:36:22;10.27;;;9.40;;
20230;SDS011;10274;49.022;9.338;2022-07-25T05:38:49;10.33;;;9.27;;
20230;SDS011;10274;49.022;9.338;2022-07-25T05:41:15;9.67;;;8.77;;
20230;SDS011;10274;49.022;9.338;2022-07-25T05:43:42;10.03;;;9.23;;
20230;SDS011;10274;49.022;9.338;2022-07-25T05:46:11;9.77;;;8.97;;
20230;SDS011;10274;49.022;9.338;2022-07-25T05:48:37;10.03;;;9.10;;
20230;SDS011;10274;49.022;9.338;2022-07-25T05:51:04;10.53;;;8.87;;
20230;SDS011;10274;49.022;9.338;2022-07-25T05:53:32;10.00;;;9.10;;
20230;SDS011;10274;49.022;9.338;2022-07-25T05:55:59;10.30;;;9.40;;
20230;SDS011;10274;49.022;9.338;2022-07-25T05:58:26;15.43;;;9.93;;
20230;SDS011;10274;49.022;9.338;2022-07-25T06:00:53;9.77;;;8.90;;
20230;SDS011;10274;49.022;9.338;2022-07-25T06:03:20;9.97;;;8.80;;
20230;SDS011;10274;49.022;9.338;2022-07-25T06:05:47;10.43;;;9.43;;
20230;SDS011;10274;49.022;9.338;2022-07-25T06:08:14;9.83;;;8.83;;
20230;SDS011;10274;49.022;9.338;2022-07-25T06:10:42;9.30;;;8.40;;
20230;SDS011;10274;49.022;9.338;2022-07-25T06:13:09;10.50;;;9.60;;
20230;SDS011;10274;49.022;9.338;2022-07-25T06:15:36;9.73;;;8.93;;
20230;SDS011;10274;49.022;9.338;2022-07-25T06:18:03;9.53;;;8.60;;
20230;SDS011;10274;49.022;9.338;2022-07-25T06:20:29;9.40;;;8.07;;
20230;SDS011;10274;49.022;9.338;2022-07-25T06:22:56;9.03;;;8.20;;
20230;SDS011;10274;49.022;9.338;2022-07-25T06:25:23;9.83;;;8.93;;
20230;SDS011;10274;49.022;9.338;2022-07-25T06:27:51;9.03;;;8.27;;
20230;SDS011;10274;49.022;9.338;2022-07-25T06:30:18;9.27;;;8.30;;
20230;SDS011;10274;49.022;9.338;2022-07-25T06:32:44;8.80;;;7.93;;
20230;SDS011;10274;49.022;9.338;2022-07-25T06:35:11;8.83;;;8.03;;
20230;SDS011;10274;49.022;9.338;2022-07-25T06:37:38;7.97;;;6.80;;
20230;SDS011;10274;49.022;9.338;2022-07-25T06:40:05;9.07;;;8.17;;
20230;SDS011;10274;49.022;9.338;2022-07-25T06:42:36;8.43;;;7.77;;
20230;SDS011;10274;49.022;9.338;2022-07-25T06:45:05;7.73;;;7.03;;
20230;SDS011;10274;49.022;9.338;2022-07-25T06:47:33;8.23;;;7.40;;
20230;SDS011;10274;49.022;9.338;2022-07-25T06:50:00;8.43;;;7.57;;
20230;SDS011;10274;49.022;9.338;2022-07-25T06:52:26;8.50;;;7.78;;
20230;SDS011;10274;49.022;9.338;2022-07-25T06:54:53;8.07;;;7.38;;
20230;SDS011;10274;49.022;9.338;2022-07-25T06:57:20;8.98;;;8.07;;
20230;SDS011;10274;49.022;9.338;2022-07-25T06:59:47;8.10;;;7.40;;
20230;SDS011;10274;49.022;9.338;2022-07-25T07:02:15;8.07;;;7.28;;
20230;SDS011;10274;49.022;9.338;2022-07-25T07:04:42;8.32;;;7.60;;
20230;SDS011;10274;49.022;9.338;2022-07-25T07:07:09;7.68;;;7.07;;
20230;SDS011;10274;49.022;9.338;2022-07-25T07:09:36;8.05;;;7.35;;
20230;SDS011;10274;49.022;9.338;2022-07-25T07:12:03;7.95;;;7.28;;
20230;SDS011;10274;49.022;9.338;2022-07-25T07:14:30;7.28;;;6.68;;
20230;SDS011;10274;49.022;9.338;2022-07-25T07:16:57;8.32;;;7.35;;
20230;SDS011;10274;49.022;9.338;2022-07-25T07:19:25;7.78;;;7.13;;
20230;SDS011;10274;49.022;9.338;2022-07-25T07:21:51;7.40;;;6.70;;
20230;SDS011;10274;49.022;9.338;2022-07-25T07:24:18;8.10;;;7.40;;
20230;SDS011;10274;49.022;9.338;2022-07-25T07:26:45;8.20;;;7.40;;
20230;SDS011;10274;49.022;9.338;2022-07-25T07:29:11;7.78;;;6.97;;
20230;SDS011;10274;49.022;9.338;2022-07-25T07:31:38;7.80;;;6.95;;
20230;SDS011;10274;49.022;9.338;2022-07-25T07:34:05;8.00;;;7.18;;
20230;SDS011;10274;49.022;9.338;2022-07-25T07:36:33;7.53;;;6.93;;
20230;SDS011;10274;49.022;9.338;2022-07-25T07:39:00;7.90;;;7.20;;
20230;SDS011;10274;49.022;9.338;2022-07-25T07:41:27;7.78;;;7.05;;
20230;SDS011;10274;49.022;9.338;2022-07-25T07:43:53;7.45;;;6.72;;
20230;SDS011;10274;49.022;9.338;2022-07-25T07:46:20;7.85;;;7.15;;
20230;SDS011;10274;49.022;9.338;2022-07-25T07:48:47;7.97;;;7.20;;
20230;SDS011;10274;49.022;9.338;2022-07-25T07:51:13;8.80;;;7.32;;
20230;SDS011;10274;49.022;9.338;2022-07-25T07:53:42;7.18;;;6.47;;
20230;SDS011;10274;49.022;9.338;2022-07-25T07:56:26;7.85;;;7.15;;
20230;SDS011;10274;49.022;9.338;2022-07-25T07:58:53;7.85;;;7.15;;
20230;SDS011;10274;49.022;9.338;2022-07-25T08:01:20;7.95;;;7.22;;
20230;SDS011;10274;49.022;9.338;2022-07-25T08:03:46;8.13;;;7.43;;
20230;SDS011;10274;49.022;9.338;2022-07-25T08:06:13;8.13;;;7.32;;
20230;SDS011;10274;49.022;9.338;2022-07-25T08:08:41;8.05;;;7.35;;
20230;SDS011;10274;49.022;9.338;2022-07-25T08:11:08;8.70;;;7.20;;
20230;SDS011;10274;49.022;9.338;2022-07-25T08:13:35;8.27;;;7.57;;
20230;SDS011;10274;49.022;9.338;2022-07-25T08:16:02;7.80;;;7.07;;
20230;SDS011;10274;49.022;9.338;2022-07-25T08:18:30;7.47;;;6.78;;
20230;SDS011;10274;49.022;9.338;2022-07-25T08:20:57;8.18;;;7.22;;
20230;SDS011;10274;49.022;9.338;2022-07-25T08:23:26;7.93;;;7.05;;
20230;SDS011;10274;49.022;9.338;2022-07-25T08:25:56;7.00;;;6.30;;
20230;SDS011;10274;49.022;9.338;2022-07-25T08:28:26;8.20;;;7.40;;
20230;SDS011;10274;49.022;9.338;2022-07-25T08:30:53;7.30;;;6.75;;
20230;SDS011;10274;49.022;9.338;2022-07-25T08:33:19;7.28;;;6.60;;
20230;SDS011;10274;49.022;9.338;2022-07-25T08:35:47;7.38;;;6.70;;
20230;SDS011;10274;49.022;9.338;2022-07-25T08:38:15;7.18;;;6.50;;
20230;SDS011;10274;49.022;9.338;2022-07-25T08:40:43;7.15;;;6.50;;
20230;SDS011;10274;49.022;9.338;2022-07-25T08:43:11;7.32;;;6.57;;
20230;SDS011;10274;49.022;9.338;2022-07-25T08:45:40;6.55;;;6.05;;
20230;SDS011;10274;49.022;9.338;2022-07-25T08:48:09;7.25;;;6.53;;
20230;SDS011;10274;49.022;9.338;2022-07-25T08:50:36;6.93;;;5.88;;
20230;SDS011;10274;49.022;9.338;2022-07-25T08:53:04;7.30;;;6.70;;
20230;SDS011;10274;49.022;9.338;2022-07-25T08:55:31;7.38;;;6.70;;
20230;SDS011;10274;49.022;9.338;2022-07-25T08:57:57;6.38;;;5.88;;
20230;SDS011;10274;49.022;9.338;2022-07-25T09:00:26;7.07;;;6.47;;
20230;SDS011;10274;49.022;9.338;2022-07-25T09:02:54;7.28;;;6.57;;
20230;SDS011;10274;49.022;9.338;2022-07-25T09:05:22;6.97;;;6.45;;
20230;SDS011;10274;49.022;9.338;2022-07-25T09:07:50;7.55;;;6.85;;
20230;SDS011;10274;49.022;9.338;2022-07-25T09:10:18;6.50;;;6.00;;
20230;SDS011;10274;49.022;9.338;2022-07-25T09:12:50;6.88;;;6.07;;
20230;SDS011;10274;49.022;9.338;2022-07-25T09:15:26;7.28;;;6.53;;
20230;SDS011;10274;49.022;9.338;2022-07-25T09:17:54;7.95;;;6.78;;
20230;SDS011;10274;49.022;9.338;2022-07-25T09:20:22;6.82;;;6.13;;
20230;SDS011;10274;49.022;9.338;2022-07-25T09:22:51;6.63;;;6.13;;
20230;SDS011;10274;49.022;9.338;2022-07-25T09:25:21;8.25;;;6.03;;
20230;SDS011;10274;49.022;9.338;2022-07-25T09:27:50;6.53;;;6.03;;
20230;SDS011;10274;49.022;9.338;2022-07-25T09:30:17;6.03;;;5.53;;
20230;SDS011;10274;49.022;9.338;2022-07-25T09:32:46;8.15;;;6.50;;
20230;SDS011;10274;49.022;9.338;2022-07-25T09:35:12;6.90;;;6.25;;
20230;SDS011;10274;49.022;9.338;2022-07-25T09:37:39;6.22;;;5.63;;
20230;SDS011;10274;49.022;9.338;2022-07-25T09:40:15;5.95;;;5.43;;
20230;SDS011;10274;49.022;9.338;2022-07-25T09:42:48;6.40;;;5.82;;
20230;SDS011;10274;49.022;9.338;2022-07-25T09:45:16;7.18;;;5.80;;
20230;SDS011;10274;49.022;9.338;2022-07-25T09:47:52;6.35;;;5.72;;
20230;SDS011;10274;49.022;9.338;2022-07-25T09:50:20;6.95;;;6.35;;
20230;SDS011;10274;49.022;9.338;2022-07-25T09:52:49;7.57;;;6.13;;
20230;SDS011;10274;49.022;9.338;2022-07-25T09:55:17;6.13;;;5.63;;
20230;SDS011;10274;49.022;9.338;2022-07-25T09:57:44;6.28;;;5.82;;
20230;SDS011;10274;49.022;9.338;2022-07-25T10:00:13;7.32;;;6.00;;
20230;SDS011;10274;49.022;9.338;2022-07-25T10:02:46;6.72;;;5.78;;
20230;SDS011;10274;49.022;9.338;2022-07-25T10:05:18;7.43;;;5.50;;
20230;SDS011;10274;49.022;9.338;2022-07-25T10:07:54;5.55;;;5.15;;
20230;SDS011;10274;49.022;9.338;2022-07-25T10:10:25;6.15;;;5.55;;
20230;SDS011;10274;49.022;9.338;2022-07-25T10:12:58;6.05;;;5.55;;
20230;SDS011;10274;49.022;9.338;2022-07-25T10:15:37;6.70;;;6.05;;
20230;SDS011;10274;49.022;9.338;2022-07-25T10:18:06;5.32;;;4.93;;
20230;SDS011;10274;49.022;9.338;2022-07-25T10:20:34;6.43;;;5.25;;
20230;SDS011;10274;49.022;9.338;2022-07-25T10:23:01;5.90;;;5.40;;
20230;SDS011;10274;49.022;9.338;2022-07-25T10:25:28;5.82;;;5.32;;
20230;SDS011;10274;49.022;9.338;2022-07-25T10:27:57;6.30;;;5.70;;
20230;SDS011;10274;49.022;9.338;2022-07-25T10:30:32;6.22;;;5.30;;
20230;SDS011;10274;49.022;9.338;2022-07-25T10:33:01;7.35;;;5.40;;
20230;SDS011;10274;49.022;9.338;2022-07-25T10:35:29;7.63;;;5.80;;
20230;SDS011;10274;49.022;9.338;2022-07-25T10:37:58;5.57;;;5.18;;
20230;SDS011;10274;49.022;9.338;2022-07-25T10:40:36;5.50;;;4.90;;
20230;SDS011;10274;49.022;9.338;2022-07-25T10:43:08;5.82;;;5.30;;
20230;SDS011;10274;49.022;9.338;2022-07-25T10:45:39;5.53;;;4.20;;
20230;SDS011;10274;49.022;9.338;2022-07-25T10:48:08;4.45;;;4.15;;
20230;SDS011;10274;49.022;9.338;2022-07-25T10:50:45;6.15;;;4.63;;
20230;SDS011;10274;49.022;9.338;2022-07-25T10:53:14;4.78;;;4.38;;
20230;SDS011;10274;49.022;9.338;2022-07-25T10:55:55;5.00;;;4.50;;
20230;SDS011;10274;49.022;9.338;2022-07-25T10:58:22;4.93;;;4.57;;
20230;SDS011;10274;49.022;9.338;2022-07-25T11:00:49;4.50;;;4.20;;
20230;SDS011;10274;49.022;9.338;2022-07-25T11:03:16;4.60;;;4.30;;
20230;SDS011;10274;49.022;9.338;2022-07-25T11:05:43;6.10;;;4.32;;
20230;SDS011;10274;49.022;9.338;2022-07-25T11:08:10;4.95;;;4.03;;
20230;SDS011;10274;49.022;9.338;2022-07-25T11:10:38;5.03;;;4.63;;
20230;SDS011;10274;49.022;9.338;2022-07-25T11:13:08;4.60;;;4.20;;
20230;SDS011;10274;49.022;9.338;2022-07-25T11:15:36;4.43;;;4.03;;
20230;SDS011;10274;49.022;9.338;2022-07-25T11:18:03;4.32;;;4.03;;
20230;SDS011;10274;49.022;9.338;2022-07-25T11:20:30;4.25;;;3.88;;
20230;SDS011;10274;49.022;9.338;2022-07-25T11:22:57;4.40;;;3.95;;
20230;SDS011;10274;49.022;9.338;2022-07-25T11:25:24;4.30;;;4.00;;
20230;SDS011;10274;49.022;9.338;2022-07-25T11:27:55;4.57;;;4.18;;
20230;SDS011;10274;49.022;9.338;2022-07-25T11:30:24;4.50;;;4.10;;
20230;SDS011;10274;49.022;9.338;2022-07-25T11:32:53;4.72;;;4.30;;
20230;SDS011;10274;49.022;9.338;2022-07-25T11:35:23;4.35;;;3.65;;
20230;SDS011;10274;49.022;9.338;2022-07-25T11:37:51;4.60;;;4.20;;
20230;SDS011;10274;49.022;9.338;2022-07-25T11:40:19;4.95;;;4.55;;
20230;SDS011;10274;49.022;9.338;2022-07-25T11:42:48;5.07;;;4.22;;
20230;SDS011;10274;49.022;9.338;2022-07-25T11:45:18;4.97;;;4.47;;
20230;SDS011;10274;49.022;9.338;2022-07-25T11:47:47;4.75;;;4.35;;
20230;SDS011;10274;49.022;9.338;2022-07-25T11:50:15;4.57;;;4.10;;
20230;SDS011;10274;49.022;9.338;2022-07-25T11:52:42;4.50;;;4.20;;
20230;SDS011;10274;49.022;9.338;2022-07-25T11:55:11;4.88;;;4.38;;
20230;SDS011;10274;49.022;9.338;2022-07-25T11:57:44;4.90;;;4.43;;
20230;SDS011;10274;49.022;9.338;2022-07-25T12:00:14;4.85;;;4.45;;
20230;SDS011;10274;49.022;9.338;2022-07-25T12:02:44;5.50;;;5.00;;
20230;SDS011;10274;49.022;9.338;2022-07-25T12:05:12;5.47;;;4.97;;
20230;SDS011;10274;49.022;9.338;2022-07-25T12:07:42;5.13;;;4.82;;
20230;SDS011;10274;49.022;9.338;2022-07-25T12:10:11;4.78;;;4.38;;
20230;SDS011;10274;49.022;9.338;2022-07-25T12:12:46;4.72;;;4.32;;
20230;SDS011;10274;49.022;9.338;2022-07-25T12:15:15;8.80;;;4.53;;
20230;SDS011;10274;49.022;9.338;2022-07-25T12:17:45;9.10;;;4.70;;
20230;SDS011;10274;49.022;9.338;2022-07-25T12:20:13;5.40;;;4.70;;
20230;SDS011;10274;49.022;9.338;2022-07-25T12:22:41;5.18;;;4.68;;
20230;SDS011;10274;49.022;9.338;2022-07-25T12:25:08;6.00;;;4.60;;
20230;SDS011;10274;49.022;9.338;2022-07-25T12:27:36;4.57;;;4.10;;
20230;SDS011;10274;49.022;9.338;2022-07-25T12:30:04;4.70;;;4.30;;
20230;SDS011;10274;49.022;9.338;2022-07-25T12:32:32;4.93;;;4.25;;
20230;SDS011;10274;49.022;9.338;2022-07-25T12:35:01;4.68;;;4.28;;
20230;SDS011;10274;49.022;9.338;2022-07-25T12:37:28;4.50;;;4.18;;
20230;SDS011;10274;49.022;9.338;2022-07-25T12:39:55;5.43;;;4.60;;
20230;SDS011;10274;49.022;9.338;2022-07-25T12:42:22;4.88;;;4.47;;
20230;SDS011;10274;49.022;9.338;2022-07-25T12:44:48;5.25;;;4.22;;
20230;SDS011;10274;49.022;9.338;2022-07-25T12:47:15;5.03;;;4.50;;
20230;SDS011;10274;49.022;9.338;2022-07-25T12:49:42;5.18;;;4.68;;
20230;SDS011;10274;49.022;9.338;2022-07-25T12:52:10;4.88;;;4.47;;
20230;SDS011;10274;49.022;9.338;2022-07-25T12:54:37;4.55;;;4.22;;
20230;SDS011;10274;49.022;9.338;2022-07-25T12:57:04;5.20;;;4.80;;
20230;SDS011;10274;49.022;9.338;2022-07-25T12:59:31;4.72;;;4.32;;
20230;SDS011;10274;49.022;9.338;2022-07-25T13:01:58;4.90;;;4.50;;
20230;SDS011;10274;49.022;9.338;2022-07-25T13:04:25;5.60;;;4.60;;
20230;SDS011;10274;49.022;9.338;2022-07-25T13:06:51;5.30;;;4.82;;
20230;SDS011;10274;49.022;9.338;2022-07-25T13:09:20;5.30;;;4.80;;
20230;SDS011;10274;49.022;9.338;2022-07-25T13:11:47;5.05;;;4.65;;
20230;SDS011;10274;49.022;9.338;2022-07-25T13:14:14;7.38;;;5.40;;
20230;SDS011;10274;49.022;9.338;2022-07-25T13:16:41;6.55;;;5.32;;
20230;SDS011;10274;49.022;9.338;2022-07-25T13:19:08;5.18;;;4.78;;
20230;SDS011;10274;49.022;9.338;2022-07-25T13:21:35;5.60;;;5.10;;
20230;SDS011;10274;49.022;9.338;2022-07-25T13:24:02;5.20;;;4.80;;
20230;SDS011;10274;49.022;9.338;2022-07-25T13:26:31;13.45;;;5.40;;
20230;SDS011;10274;49.022;9.338;2022-07-25T13:28:58;5.43;;;5.03;;
20230;SDS011;10274;49.022;9.338;2022-07-25T13:31:25;5.85;;;5.10;;
20230;SDS011;10274;49.022;9.338;2022-07-25T13:33:52;5.82;;;5.38;;
20230;SDS011;10274;49.022;9.338;2022-07-25T13:36:19;7.07;;;5.32;;
20230;SDS011;10274;49.022;9.338;2022-07-25T13:38:46;5.72;;;5.30;;
20230;SDS011;10274;49.022;9.338;2022-07-25T13:41:13;5.78;;;5.07;;
20230;SDS011;10274;49.022;9.338;2022-07-25T13:43:41;5.90;;;5.28;;
20230;SDS011;10274;49.022;9.338;2022-07-25T13:46:08;6.07;;;5.57;;
20230;SDS011;10274;49.022;9.338;2022-07-25T13:48:35;5.22;;;4.82;;
20230;SDS011;10274;49.022;9.338;2022-07-25T13:51:02;6.00;;;5.40;;
20230;SDS011;10274;49.022;9.338;2022-07-25T13:53:29;6.90;;;5.70;;
20230;SDS011;10274;49.022;9.338;2022-07-25T13:55:56;5.95;;;5.22;;
20230;SDS011;10274;49.022;9.338;2022-07-25T13:58:23;6.57;;;5.20;;
20230;SDS011;10274;49.022;9.338;2022-07-25T14:00:52;5.75;;;5.30;;
20230;SDS011;10274;49.022;9.338;2022-07-25T14:03:19;5.30;;;4.85;;
20230;SDS011;10274;49.022;9.338;2022-07-25T14:05:46;6.00;;;5.50;;
20230;SDS011;10274;49.022;9.338;2022-07-25T14:08:12;5.55;;;5.15;;
20230;SDS011;10274;49.022;9.338;2022-07-25T14:10:39;6.07;;;5.43;;
20230;SDS011;10274;49.022;9.338;2022-07-25T14:13:06;9.00;;;6.55;;
20230;SDS011;10274;49.022;9.338;2022-07-25T14:15:33;9.40;;;6.55;;
20230;SDS011;10274;49.022;9.338;2022-07-25T14:18:01;15.38;;;9.95;;
20230;SDS011;10274;49.022;9.338;2022-07-25T14:20:28;30.95;;;15.90;;
20230;SDS011;10274;49.022;9.338;2022-07-25T14:22:54;12.45;;;8.23;;
20230;SDS011;10274;49.022;9.338;2022-07-25T14:25:21;7.13;;;6.25;;
20230;SDS011;10274;49.022;9.338;2022-07-25T14:27:48;7.07;;;6.47;;
20230;SDS011;10274;49.022;9.338;2022-07-25T14:30:15;7.82;;;7.22;;
20230;SDS011;10274;49.022;9.338;2022-07-25T14:32:41;7.70;;;6.93;;
20230;SDS011;10274;49.022;9.338;2022-07-25T14:35:09;7.93;;;6.32;;
20230;SDS011;10274;49.022;9.338;2022-07-25T14:37:37;7.40;;;6.32;;
20230;SDS011;10274;49.022;9.338;2022-07-25T14:40:04;6.68;;;6.07;;
20230;SDS011;10274;49.022;9.338;2022-07-25T14:42:34;7.15;;;6.45;;
20230;SDS011;10274;49.022;9.338;2022-07-25T14:45:02;7.32;;;6.10;;
20230;SDS011;10274;49.022;9.338;2022-07-25T14:47:29;6.88;;;6.35;;